Time;durP1;ratioP1;P1;durP2;ratioP2;P2;SDS_P1;SDS_P2;PMS_P1;PMS_P2;Temp;Humidity;BMP_temperature;BMP_pressure;BME280_temperature;BME280_humidity;BME280_pressure;Samples;Min_cycle;Max_cycle;Signal;HPM_P1;HPM_P2
2021/07/12 00:01:55;;;;;;;2.40;1.73;;;15.10;47.90;;;;;;5015653;28;20420;-71
2021/07/12 00:04:21;;;;;;;2.70;2.00;;;15.10;47.40;;;;;;5033152;28;20209;-71
2021/07/12 00:06:46;;;;;;;2.90;2.13;;;15.00;47.60;;;;;;5032317;28;20173;-71
2021/07/12 00:09:12;;;;;;;3.00;2.07;;;15.00;49.10;;;;;;5032621;28;20224;-72
2021/07/12 00:11:37;;;;;;;3.20;2.00;;;15.00;48.60;;;;;;5032475;28;20260;-71
2021/07/12 00:14:03;;;;;;;3.00;1.60;;;15.00;47.60;;;;;;5032952;28;20185;-71
2021/07/12 00:16:29;;;;;;;3.03;2.30;;;14.90;47.90;;;;;;5032410;28;20240;-71
2021/07/12 00:18:54;;;;;;;2.30;2.10;;;14.90;49.20;;;;;;5031565;28;20233;-71
2021/07/12 00:21:20;;;;;;;2.83;1.80;;;14.80;49.00;;;;;;5032074;28;20181;-71
2021/07/12 00:23:46;;;;;;;3.03;1.63;;;14.80;48.80;;;;;;5032161;28;20190;-71
2021/07/12 00:26:11;;;;;;;2.37;1.80;;;14.80;48.80;;;;;;5031706;28;20169;-71
2021/07/12 00:28:37;;;;;;;2.60;2.07;;;14.80;48.90;;;;;;5032289;28;20200;-72
2021/07/12 00:31:04;;;;;;;2.57;1.97;;;14.70;48.50;;;;;;5032487;28;20178;-72
2021/07/12 00:33:31;;;;;;;2.70;2.10;;;14.70;48.50;;;;;;5032292;28;20427;-71
2021/07/12 00:35:57;;;;;;;3.23;2.90;;;14.60;48.40;;;;;;5031546;28;20937;-71
2021/07/12 00:38:23;;;;;;;3.50;2.03;;;14.60;48.70;;;;;;5014713;28;20513;-71
2021/07/12 00:40:48;;;;;;;2.10;1.90;;;14.60;49.20;;;;;;5032149;28;20632;-71
2021/07/12 00:43:14;;;;;;;3.67;2.00;;;14.50;49.60;;;;;;5032766;28;20181;-71
2021/07/12 00:45:40;;;;;;;2.13;1.93;;;14.50;49.90;;;;;;5032495;28;20176;-71
2021/07/12 00:48:06;;;;;;;4.90;2.17;;;14.50;50.40;;;;;;5032214;28;20636;-72
2021/07/12 00:50:35;;;;;;;2.57;1.97;;;14.50;50.10;;;;;;5032214;28;20179;-71
2021/07/12 00:53:01;;;;;;;4.47;2.33;;;14.50;51.20;;;;;;5032201;28;20473;-72
2021/07/12 00:55:40;;;;;;;3.17;2.87;;;14.60;50.80;;;;;;5032517;28;20931;-71
2021/07/12 00:58:08;;;;;;;2.30;1.97;;;14.60;50.50;;;;;;5032371;28;20830;-71
2021/07/12 01:00:35;;;;;;;2.30;1.73;;;14.60;50.50;;;;;;5031957;28;20410;-71
2021/07/12 01:03:01;;;;;;;2.30;1.90;;;14.50;50.40;;;;;;5031898;28;20415;-71
2021/07/12 01:05:29;;;;;;;4.10;2.60;;;14.50;50.40;;;;;;5031630;28;20427;-72
2021/07/12 01:07:55;;;;;;;4.67;2.40;;;14.50;50.40;;;;;;5031972;28;20439;-71
2021/07/12 01:10:22;;;;;;;2.30;1.60;;;14.40;50.30;;;;;;5031491;28;20456;-72
2021/07/12 01:13:15;;;;;;;5.93;2.60;;;14.40;51.10;;;;;;5032014;28;20417;-71
2021/07/12 01:16:05;;;;;;;3.07;2.07;;;14.40;51.20;;;;;;5032318;28;20403;-70
2021/07/12 01:18:54;;;;;;;5.10;2.13;;;14.40;50.90;;;;;;5031871;28;20461;-71
2021/07/12 01:21:58;;;;;;;3.27;2.17;;;14.30;51.40;;;;;;5031940;28;20418;-71
2021/07/12 01:24:42;;;;;;;2.73;2.10;;;14.20;52.00;;;;;;5032347;28;20859;-71
2021/07/12 01:27:37;;;;;;;2.10;1.73;;;14.30;52.30;;;;;;5032439;28;20425;-71
2021/07/12 01:30:21;;;;;;;2.93;2.00;;;14.30;51.50;;;;;;5031848;28;20428;-71
2021/07/12 01:33:02;;;;;;;2.67;2.20;;;14.20;51.00;;;;;;5032425;28;20469;-71
2021/07/12 01:35:55;;;;;;;2.80;2.50;;;14.20;51.40;;;;;;5032413;28;20421;-71
2021/07/12 01:38:58;;;;;;;8.33;2.83;;;14.10;51.60;;;;;;5032216;28;20478;-70
2021/07/12 01:41:34;;;;;;;2.57;2.37;;;14.20;52.20;;;;;;5014578;28;20441;-71
2021/07/12 01:44:07;;;;;;;2.47;2.20;;;14.10;51.60;;;;;;5032247;28;20415;-71
2021/07/12 01:46:45;;;;;;;2.93;2.13;;;14.10;51.70;;;;;;5032268;28;20497;-71
2021/07/12 01:49:20;;;;;;;2.57;2.07;;;14.00;52.20;;;;;;5032185;28;20468;-71
2021/07/12 01:51:58;;;;;;;3.83;2.30;;;14.10;52.80;;;;;;5032259;28;20420;-71
2021/07/12 01:54:36;;;;;;;7.20;2.50;;;14.00;53.30;;;;;;5032547;28;20463;-71
2021/07/12 01:57:06;;;;;;;2.13;1.67;;;14.10;53.30;;;;;;5032675;28;20465;-71
2021/07/12 01:59:51;;;;;;;3.00;2.13;;;14.10;52.90;;;;;;5033102;28;20467;-71
2021/07/12 02:02:17;;;;;;;2.73;2.13;;;14.00;52.00;;;;;;5035847;28;20456;-71
2021/07/12 02:04:44;;;;;;;2.53;2.30;;;13.90;51.80;;;;;;5017582;28;20421;-71
2021/07/12 02:07:13;;;;;;;3.47;2.27;;;13.90;53.20;;;;;;5035639;28;20423;-71
2021/07/12 02:09:39;;;;;;;3.97;1.67;;;14.00;53.60;;;;;;5035185;28;20496;-71
2021/07/12 02:12:06;;;;;;;3.13;2.37;;;14.00;53.10;;;;;;5035598;28;20509;-71
2021/07/12 02:14:33;;;;;;;4.50;2.37;;;13.90;53.00;;;;;;5035113;28;20413;-71
2021/07/12 02:17:01;;;;;;;3.50;2.40;;;13.80;52.40;;;;;;5035195;28;20501;-72
2021/07/12 02:19:29;;;;;;;3.60;2.70;;;13.70;52.80;;;;;;5034837;28;20861;-71
2021/07/12 02:21:56;;;;;;;3.13;1.90;;;13.70;53.50;;;;;;5034985;28;20418;-71
2021/07/12 02:24:22;;;;;;;2.90;2.00;;;13.60;53.10;;;;;;5036305;28;20802;-71
2021/07/12 02:26:50;;;;;;;2.27;1.80;;;13.60;53.50;;;;;;5034890;28;20449;-71
2021/07/12 02:29:16;;;;;;;4.90;2.40;;;13.60;53.90;;;;;;5034703;28;20430;-71
2021/07/12 02:31:42;;;;;;;2.30;1.60;;;13.70;54.30;;;;;;5034488;28;20896;-70
2021/07/12 02:34:10;;;;;;;4.00;2.87;;;13.70;54.60;;;;;;5034879;28;20418;-71
2021/07/12 02:36:37;;;;;;;2.30;1.73;;;13.70;54.60;;;;;;5035714;28;21051;-71
2021/07/12 02:39:04;;;;;;;3.40;2.97;;;13.70;54.60;;;;;;5034361;28;20607;-71
2021/07/12 02:41:30;;;;;;;2.90;2.23;;;13.60;53.70;;;;;;5034791;28;20406;-71
2021/07/12 02:43:59;;;;;;;4.13;2.60;;;13.50;54.30;;;;;;5035351;28;20418;-71
2021/07/12 02:46:25;;;;;;;3.43;2.40;;;13.50;54.20;;;;;;5017507;28;20418;-71
2021/07/12 02:48:52;;;;;;;3.70;2.00;;;13.40;54.40;;;;;;5035193;28;20458;-70
2021/07/12 02:51:24;;;;;;;2.53;2.33;;;13.40;54.40;;;;;;5035325;28;20450;-71
2021/07/12 02:53:57;;;;;;;3.30;3.00;;;13.40;54.40;;;;;;5035132;28;20504;-71
2021/07/12 02:56:22;;;;;;;2.67;2.13;;;13.40;54.40;;;;;;5035097;28;20501;-72
2021/07/12 02:58:48;;;;;;;8.40;2.20;;;13.40;54.80;;;;;;5034564;28;20931;-71
2021/07/12 03:01:13;;;;;;;4.03;2.20;;;13.50;54.50;;;;;;5034756;28;20513;-71
2021/07/12 03:03:39;;;;;;;3.13;2.20;;;13.50;54.50;;;;;;5034565;28;20175;-71
2021/07/12 03:06:13;;;;;;;3.50;2.73;;;13.50;55.40;;;;;;5034421;28;20213;-72
2021/07/12 03:08:42;;;;;;;2.90;2.40;;;13.50;54.50;;;;;;5016526;28;20209;-71
2021/07/12 03:11:12;;;;;;;3.73;2.37;;;13.50;54.50;;;;;;5032982;28;20627;-71
2021/07/12 03:13:54;;;;;;;2.60;2.40;;;13.40;54.40;;;;;;5033927;28;20476;-71
2021/07/12 03:16:20;;;;;;;3.83;2.27;;;13.40;54.40;;;;;;5034492;28;20442;-72
2021/07/12 03:18:51;;;;;;;12.60;3.07;;;13.50;55.30;;;;;;5034398;28;21172;-71
2021/07/12 03:21:19;;;;;;;3.47;3.17;;;13.50;54.60;;;;;;5034238;28;20175;-71
2021/07/12 03:23:46;;;;;;;3.20;2.87;;;13.50;55.70;;;;;;5033514;28;20411;-71
2021/07/12 03:26:15;;;;;;;3.50;2.40;;;13.60;54.50;;;;;;5033997;28;20413;-71
2021/07/12 03:28:41;;;;;;;3.13;2.83;;;13.50;54.50;;;;;;5033791;28;20470;-71
2021/07/12 03:31:09;;;;;;;3.00;2.50;;;13.40;54.40;;;;;;5033116;28;20418;-71
2021/07/12 03:33:37;;;;;;;4.30;2.73;;;13.40;54.40;;;;;;5033880;28;20436;-71
2021/07/12 03:36:04;;;;;;;2.90;2.67;;;13.40;54.40;;;;;;5033997;28;20418;-71
2021/07/12 03:38:31;;;;;;;2.50;2.20;;;13.40;54.40;;;;;;5033638;28;20465;-71
2021/07/12 03:40:58;;;;;;;3.10;2.60;;;13.50;54.50;;;;;;5033261;28;20437;-71
2021/07/12 03:43:24;;;;;;;2.30;2.10;;;13.40;54.40;;;;;;5033488;28;20424;-71
2021/07/12 03:45:57;;;;;;;3.77;1.80;;;13.40;54.40;;;;;;5033790;28;20415;-71
2021/07/12 03:48:33;;;;;;;10.83;2.47;;;13.40;54.40;;;;;;5015944;28;20485;-71
2021/07/12 03:50:59;;;;;;;2.83;2.33;;;13.40;53.20;;;;;;5033466;28;20421;-71
2021/07/12 03:53:24;;;;;;;3.87;2.07;;;13.40;53.40;;;;;;5033677;28;20410;-71
2021/07/12 03:55:50;;;;;;;3.40;2.63;;;13.30;53.70;;;;;;5034267;28;20175;-71
2021/07/12 03:58:15;;;;;;;3.03;1.93;;;13.20;54.20;;;;;;5033708;28;20202;-72
2021/07/12 04:00:41;;;;;;;2.30;1.90;;;13.20;54.20;;;;;;5015764;28;20226;-71
2021/07/12 04:03:06;;;;;;;4.13;2.90;;;13.30;54.30;;;;;;5033385;28;20665;-71
2021/07/12 04:05:32;;;;;;;4.10;3.30;;;13.20;54.30;;;;;;5033165;28;20669;-71
2021/07/12 04:07:57;;;;;;;3.37;2.60;;;13.20;55.00;;;;;;5033578;28;20179;-71
2021/07/12 04:10:23;;;;;;;4.80;2.87;;;13.20;54.30;;;;;;5033246;28;20213;-71
2021/07/12 04:12:49;;;;;;;4.23;3.47;;;13.20;55.00;;;;;;5033095;28;20334;-71
2021/07/12 04:15:16;;;;;;;10.30;3.13;;;13.20;55.00;;;;;;5046540;28;20417;-71
2021/07/12 04:17:42;;;;;;;4.10;3.50;;;13.20;54.80;;;;;;5052925;28;20202;-71
2021/07/12 04:20:10;;;;;;;4.97;4.30;;;13.20;55.20;;;;;;5052764;28;20822;-71
2021/07/12 04:22:36;;;;;;;3.97;3.63;;;13.20;55.80;;;;;;5052693;28;20420;-72
2021/07/12 04:25:04;;;;;;;5.43;3.20;;;13.30;56.30;;;;;;5053546;28;20774;-71
2021/07/12 04:27:29;;;;;;;3.93;3.30;;;13.30;56.40;;;;;;5052546;28;20263;-71
2021/07/12 04:29:55;;;;;;;3.63;2.80;;;13.40;56.30;;;;;;5052826;28;20571;-71
2021/07/12 04:32:21;;;;;;;3.80;3.37;;;13.50;55.70;;;;;;5053327;28;20179;-70
2021/07/12 04:34:46;;;;;;;4.23;3.20;;;13.60;54.60;;;;;;5053320;28;20582;-71
2021/07/12 04:37:12;;;;;;;7.70;3.53;;;13.70;54.60;;;;;;5052758;28;20476;-71
2021/07/12 04:39:38;;;;;;;3.70;3.03;;;13.80;54.70;;;;;;5052579;28;20218;-71
2021/07/12 04:42:03;;;;;;;6.60;4.10;;;13.80;53.80;;;;;;5052414;28;20170;-71
2021/07/12 04:44:29;;;;;;;5.60;3.10;;;13.90;53.80;;;;;;5052691;28;20604;-71
2021/07/12 04:46:57;;;;;;;3.53;2.93;;;14.00;53.40;;;;;;5052089;28;20410;-71
2021/07/12 04:49:23;;;;;;;3.63;3.20;;;14.10;51.50;;;;;;5051522;28;20234;-71
2021/07/12 04:51:49;;;;;;;3.73;3.43;;;14.10;51.20;;;;;;5034554;28;20448;-72
2021/07/12 04:54:15;;;;;;;4.33;3.30;;;14.10;51.00;;;;;;5052332;28;20174;-71
2021/07/12 04:56:41;;;;;;;3.93;3.30;;;14.20;50.80;;;;;;5052335;28;20467;-71
2021/07/12 04:59:09;;;;;;;3.53;3.10;;;14.30;50.70;;;;;;5052110;28;21035;-71
2021/07/12 05:01:36;;;;;;;3.47;3.13;;;14.40;51.30;;;;;;5052638;28;20169;-71
2021/07/12 05:04:05;;;;;;;5.60;3.00;;;15.10;55.90;;;;;;5053269;28;20409;-73
2021/07/12 05:06:32;;;;;;;4.10;2.47;;;16.70;47.30;;;;;;5034882;28;20777;-71
2021/07/12 05:08:57;;;;;;;4.53;2.60;;;18.70;37.80;;;;;;5051604;28;20433;-71
2021/07/12 05:11:25;;;;;;;3.37;2.70;;;20.50;29.80;;;;;;5058249;28;20433;-71
2021/07/12 05:13:51;;;;;;;6.13;3.13;;;21.90;25.70;;;;;;5058332;28;20182;-72
2021/07/12 05:16:17;;;;;;;4.23;3.50;;;23.30;22.90;;;;;;5039534;28;20486;-72
2021/07/12 05:18:43;;;;;;;3.33;2.50;;;24.30;20.50;;;;;;5057557;28;20969;-72
2021/07/12 05:21:08;;;;;;;3.73;3.10;;;25.30;18.30;;;;;;5058249;28;20175;-71
2021/07/12 05:23:35;;;;;;;3.30;3.00;;;25.90;17.10;;;;;;5055780;28;20175;-71
2021/07/12 05:26:01;;;;;;;4.13;3.67;;;26.40;16.20;;;;;;5056386;28;20208;-73
2021/07/12 05:28:27;;;;;;;4.73;4.23;;;26.90;14.40;;;;;;5055889;28;20424;-72
2021/07/12 05:30:52;;;;;;;4.33;3.93;;;27.20;13.60;;;;;;5051903;28;20678;-75
2021/07/12 05:33:18;;;;;;;3.40;3.10;;;27.40;13.10;;;;;;5053503;28;20182;-72
2021/07/12 05:35:44;;;;;;;3.37;3.13;;;27.80;12.40;;;;;;5056549;28;20590;-72
2021/07/12 05:38:09;;;;;;;4.20;3.80;;;27.80;12.50;;;;;;5048058;28;20255;-73
2021/07/12 05:40:36;;;;;;;3.93;3.53;;;27.90;12.50;;;;;;5044638;28;20187;-73
2021/07/12 05:43:02;;;;;;;3.90;3.60;;;28.00;12.50;;;;;;5050153;28;20587;-73
2021/07/12 05:45:28;;;;;;;4.10;3.80;;;28.30;12.10;;;;;;5049278;28;20436;-72
2021/07/12 05:47:54;;;;;;;5.17;4.70;;;28.70;11.60;;;;;;5043562;28;20490;-73
2021/07/12 05:50:19;;;;;;;4.27;3.97;;;29.00;10.10;;;;;;5035409;28;20225;-73
2021/07/12 05:52:45;;;;;;;4.77;4.37;;;29.40;9.70;;;;;;5034290;28;20202;-73
2021/07/12 05:55:11;;;;;;;3.50;3.30;;;29.70;9.50;;;;;;5035582;28;20437;-73
2021/07/12 05:57:37;;;;;;;3.80;3.50;;;29.80;8.90;;;;;;5035058;28;20207;-73
2021/07/12 06:00:06;;;;;;;8.93;4.23;;;30.00;9.00;;;;;;5035453;28;20953;-74
2021/07/12 06:02:31;;;;;;;5.37;4.97;;;30.30;8.60;;;;;;5045946;28;20187;-73
2021/07/12 06:04:57;;;;;;;5.27;4.87;;;30.30;8.70;;;;;;5054928;28;20423;-73
2021/07/12 06:07:22;;;;;;;11.63;5.70;;;30.40;8.50;;;;;;5054864;28;20218;-71
2021/07/12 06:09:48;;;;;;;4.67;4.47;;;30.70;7.70;;;;;;5052272;28;20226;-74
2021/07/12 06:12:13;;;;;;;5.47;5.07;;;30.70;8.00;;;;;;5035456;28;20637;-73
2021/07/12 06:14:39;;;;;;;6.30;5.90;;;31.00;7.30;;;;;;5027359;28;20553;-74
2021/07/12 06:17:05;;;;;;;6.07;5.67;;;31.60;6.80;;;;;;5051906;28;20190;-72
2021/07/12 06:19:30;;;;;;;6.20;5.90;;;31.70;6.40;;;;;;5017048;28;20203;-73
2021/07/12 06:21:56;;;;;;;6.93;6.33;;;31.80;6.50;;;;;;5034739;28;20230;-74
2021/07/12 06:24:21;;;;;;;7.07;6.67;;;31.60;6.40;;;;;;5034244;28;20172;-73
2021/07/12 06:26:47;;;;;;;7.87;7.43;;;31.40;6.90;;;;;;5034364;28;20237;-73
2021/07/12 06:29:13;;;;;;;7.87;7.37;;;31.70;7.50;;;;;;5034363;28;20209;-72
2021/07/12 06:31:38;;;;;;;8.97;8.07;;;31.10;7.80;;;;;;5033392;28;20190;-73
2021/07/12 06:34:04;;;;;;;8.80;8.03;;;30.70;8.00;;;;;;5033667;28;20266;-72
2021/07/12 06:36:29;;;;;;;9.13;8.53;;;30.50;8.60;;;;;;5033566;28;20187;-72
2021/07/12 06:38:55;;;;;;;8.70;8.30;;;30.10;9.10;;;;;;5032947;28;20246;-72
2021/07/12 06:41:20;;;;;;;8.83;8.33;;;29.90;9.00;;;;;;5033309;28;20244;-73
2021/07/12 06:43:46;;;;;;;9.27;8.87;;;29.60;9.30;;;;;;5051072;28;20182;-77
2021/07/12 06:46:12;;;;;;;9.97;9.17;;;29.90;9.60;;;;;;5050884;28;20189;-73
2021/07/12 06:48:37;;;;;;;9.70;9.20;;;30.20;9.10;;;;;;5033262;28;20218;-71
2021/07/12 06:51:03;;;;;;;9.53;9.03;;;30.60;8.50;;;;;;5033468;28;20185;-73
2021/07/12 06:53:28;;;;;;;10.27;9.73;;;30.30;9.00;;;;;;5045221;28;20644;-72
2021/07/12 06:55:54;;;;;;;10.17;9.60;;;30.10;9.30;;;;;;5033098;28;20225;-73
2021/07/12 06:58:19;;;;;;;10.70;10.20;;;30.50;9.30;;;;;;5042113;28;20221;-73
2021/07/12 07:00:45;;;;;;;10.37;9.93;;;30.50;8.80;;;;;;5052637;28;20208;-73
2021/07/12 07:03:10;;;;;;;9.93;9.53;;;30.00;9.60;;;;;;5053063;28;20173;-72
2021/07/12 07:05:36;;;;;;;11.03;10.53;;;30.10;10.00;;;;;;5046358;28;20236;-72
2021/07/12 07:08:03;;;;;;;11.63;10.90;;;30.00;9.60;;;;;;5036258;28;20183;-73
2021/07/12 07:10:28;;;;;;;11.87;11.20;;;29.30;11.00;;;;;;5032339;28;20191;-72
2021/07/12 07:12:54;;;;;;;10.50;10.10;;;28.60;11.70;;;;;;5032927;28;20774;-72
2021/07/12 07:15:19;;;;;;;10.70;10.30;;;27.80;13.10;;;;;;5032973;28;20219;-73
2021/07/12 07:17:45;;;;;;;11.00;10.37;;;27.90;13.50;;;;;;5066864;28;20945;-73
2021/07/12 07:20:11;;;;;;;10.80;10.30;;;27.90;13.90;;;;;;5042192;28;20206;-72
2021/07/12 07:22:37;;;;;;;10.60;10.10;;;28.10;13.50;;;;;;5041531;28;20576;-73
2021/07/12 07:25:04;;;;;;;10.87;10.17;;;28.20;13.00;;;;;;5051340;28;20409;-73
2021/07/12 07:27:31;;;;;;;10.90;10.40;;;28.30;12.70;;;;;;5047404;28;20448;-73
2021/07/12 07:29:56;;;;;;;11.03;10.37;;;28.20;13.10;;;;;;5051736;28;20433;-73
2021/07/12 07:32:22;;;;;;;10.83;10.23;;;28.40;12.80;;;;;;5052121;28;20546;-73
2021/07/12 07:34:47;;;;;;;10.20;9.67;;;28.00;13.10;;;;;;5052102;28;20185;-72
2021/07/12 07:37:13;;;;;;;9.70;9.30;;;27.40;14.20;;;;;;5050406;28;20206;-72
2021/07/12 07:39:39;;;;;;;9.97;9.47;;;26.80;15.60;;;;;;5031786;28;20195;-72
2021/07/12 07:42:05;;;;;;;9.70;9.30;;;26.70;16.40;;;;;;5032273;28;20172;-73
2021/07/12 07:44:31;;;;;;;9.83;9.43;;;27.50;16.00;;;;;;5032220;28;20814;-72
2021/07/12 07:46:57;;;;;;;10.70;10.20;;;28.10;14.90;;;;;;5031882;28;20432;-73
2021/07/12 07:49:22;;;;;;;10.47;10.07;;;28.60;13.50;;;;;;5035849;28;20215;-79
2021/07/12 07:51:49;;;;;;;11.37;10.87;;;28.60;13.50;;;;;;5033239;28;20859;-73
2021/07/12 07:54:14;;;;;;;11.60;11.10;;;29.20;13.20;;;;;;5050084;28;20193;-73
2021/07/12 07:56:40;;;;;;;11.50;11.00;;;30.00;12.80;;;;;;5050629;28;20413;-73
2021/07/12 07:59:06;;;;;;;12.10;11.40;;;30.20;11.20;;;;;;5050947;28;20207;-73
2021/07/12 08:01:32;;;;;;;12.77;11.93;;;30.30;11.20;;;;;;5051507;28;20162;-73
2021/07/12 08:03:58;;;;;;;12.33;11.83;;;30.30;11.10;;;;;;5046422;28;20422;-73
2021/07/12 08:06:24;;;;;;;13.30;12.70;;;31.10;9.60;;;;;;5031426;28;20553;-73
2021/07/12 08:08:49;;;;;;;13.47;12.97;;;31.90;8.70;;;;;;5031210;28;20202;-73
2021/07/12 08:11:15;;;;;;;13.10;12.60;;;32.40;7.70;;;;;;5031307;28;20188;-72
2021/07/12 08:13:40;;;;;;;14.97;14.27;;;32.60;7.20;;;;;;5031508;28;20210;-73
2021/07/12 08:16:06;;;;;;;14.03;13.43;;;33.00;5.90;;;;;;5051269;28;20174;-73
2021/07/12 08:18:32;;;;;;;14.07;13.47;;;32.80;6.40;;;;;;5025492;28;20210;-73
2021/07/12 08:20:57;;;;;;;14.30;13.80;;;33.00;5.90;;;;;;5031048;28;20176;-73
2021/07/12 08:23:23;;;;;;;14.80;14.20;;;32.30;5.50;;;;;;5013393;28;20171;-72
2021/07/12 08:25:50;;;;;;;14.53;13.93;;;32.20;5.40;;;;;;5038945;28;20564;-74
2021/07/12 08:28:16;;;;;;;14.70;14.20;;;32.00;6.90;;;;;;5050730;28;20632;-73
2021/07/12 08:30:43;;;;;;;15.17;14.50;;;32.10;6.50;;;;;;5050579;28;20409;-74
2021/07/12 08:33:08;;;;;;;15.37;14.70;;;32.30;5.50;;;;;;5049204;28;20300;-71
2021/07/12 08:35:34;;;;;;;15.80;15.20;;;32.60;6.90;;;;;;5050810;28;21021;-73
2021/07/12 08:38:00;;;;;;;15.40;14.80;;;32.40;5.60;;;;;;5033156;28;20202;-73
2021/07/12 08:40:28;;;;;;;15.80;15.20;;;32.20;5.40;;;;;;5050485;28;20195;-73
2021/07/12 08:42:57;;;;;;;15.40;14.80;;;31.70;5.20;;;;;;5051121;28;20421;-70
2021/07/12 08:45:24;;;;;;;15.80;15.20;;;30.90;6.50;;;;;;5050626;28;20463;-74
2021/07/12 08:47:50;;;;;;;16.07;15.30;;;30.80;6.90;;;;;;5038179;28;20779;-71
2021/07/12 08:50:16;;;;;;;16.13;15.50;;;30.90;7.30;;;;;;5047375;28;20526;-73
2021/07/12 08:52:46;;;;;;;15.93;15.33;;;30.80;7.40;;;;;;5051006;28;20417;-72
2021/07/12 08:55:13;;;;;;;16.27;15.60;;;31.30;7.90;;;;;;5050722;28;20182;-72
2021/07/12 08:57:39;;;;;;;16.57;15.97;;;;;;;;;;5050401;28;20464;-72
2021/07/12 09:00:08;;;;;;;16.13;15.53;;;30.90;27.80;;;;;;5049707;28;20479;-73
2021/07/12 09:02:36;;;;;;;15.80;15.20;;;30.30;7.40;;;;;;5030672;28;20461;-74
2021/07/12 09:05:02;;;;;;;14.47;13.97;;;29.40;8.70;;;;;;5039064;28;20502;-73
2021/07/12 09:07:29;;;;;;;15.13;14.53;;;28.70;10.50;;;;;;5049987;28;20424;-73
2021/07/12 09:10:11;;;;;;;14.23;13.73;;;28.20;12.40;;;;;;5050016;28;20468;-73
2021/07/12 09:12:45;;;;;;;14.37;13.37;;;27.80;12.50;;;;;;5050717;28;20504;-74
2021/07/12 09:15:14;;;;;;;14.60;13.90;;;27.60;12.30;;;;;;5038052;28;20510;-73
2021/07/12 09:17:48;;;;;;;13.43;12.93;;;27.40;12.30;;;;;;5030534;28;20468;-73
2021/07/12 09:20:32;;;;;;;12.37;11.73;;;27.10;13.20;;;;;;5030255;28;20479;-73
2021/07/12 09:22:59;;;;;;;12.90;12.40;;;27.00;15.70;;;;;;5012760;28;20883;-72
2021/07/12 09:25:30;;;;;;;12.33;11.93;;;27.10;12.70;;;;;;5017676;28;20486;-72
2021/07/12 09:27:56;;;;;;;13.50;13.00;;;27.10;12.10;;;;;;5050314;28;20413;-73
2021/07/12 09:30:22;;;;;;;14.40;13.80;;;27.10;12.10;;;;;;5036583;28;20448;-77
2021/07/12 09:32:51;;;;;;;12.67;12.10;;;27.10;12.10;;;;;;5012556;28;20194;-72
2021/07/12 09:35:19;;;;;;;13.10;12.60;;;27.10;14.90;;;;;;5030862;28;20178;-73
2021/07/12 09:37:48;;;;;;;11.80;11.40;;;27.20;13.00;;;;;;5030153;28;20577;-73
2021/07/12 09:40:16;;;;;;;16.17;15.20;;;27.40;14.80;;;;;;5030021;28;20438;-73
2021/07/12 09:42:47;;;;;;;13.27;12.77;;;27.50;12.30;;;;;;5030068;28;20410;-72
2021/07/12 09:45:16;;;;;;;15.00;14.20;;;27.50;13.40;;;;;;5012506;28;20422;-76
2021/07/12 09:47:44;;;;;;;27.77;16.20;;;27.50;13.60;;;;;;5030049;28;20421;-73
2021/07/12 09:50:11;;;;;;;14.33;13.73;;;27.60;12.40;;;;;;5029817;28;20453;-73
2021/07/12 09:53:01;;;;;;;14.00;13.40;;;27.60;12.90;;;;;;5030247;28;20414;-72
2021/07/12 09:55:34;;;;;;;13.47;12.97;;;27.20;12.60;;;;;;5018305;28;20434;-72
2021/07/12 09:58:17;;;;;;;13.33;12.80;;;27.00;13.80;;;;;;5029980;28;20993;-72
2021/07/12 10:00:48;;;;;;;14.07;13.57;;;27.10;13.10;;;;;;5043229;28;20432;-71
2021/07/12 10:03:21;;;;;;;13.73;13.23;;;27.10;12.10;;;;;;5038681;28;20425;-72
2021/07/12 10:05:48;;;;;;;13.60;13.10;;;27.00;12.00;;;;;;5021151;28;20425;-74
2021/07/12 10:08:14;;;;;;;14.83;14.23;;;26.70;13.00;;;;;;5030006;28;20500;-72
2021/07/12 10:10:40;;;;;;;14.27;13.67;;;26.70;11.90;;;;;;5029783;28;20497;-72
2021/07/12 10:13:06;;;;;;;14.17;13.47;;;26.60;12.60;;;;;;5011799;28;20536;-72
2021/07/12 10:15:34;;;;;;;14.70;14.10;;;26.80;13.40;;;;;;5036996;28;20187;-72
2021/07/12 10:18:01;;;;;;;15.90;15.20;;;26.90;12.00;;;;;;5016209;28;20825;-72
2021/07/12 10:20:27;;;;;;;14.93;14.03;;;26.90;11.20;;;;;;5033440;28;20457;-72
2021/07/12 10:22:57;;;;;;;13.70;13.20;;;26.80;11.90;;;;;;5053290;28;20459;-71
2021/07/12 10:25:26;;;;;;;15.10;14.50;;;27.20;12.10;;;;;;5047000;28;20868;-76
2021/07/12 10:27:57;;;;;;;13.90;13.40;;;27.20;11.50;;;;;;5032664;28;20840;-72
2021/07/12 10:30:33;;;;;;;14.10;13.50;;;27.50;11.40;;;;;;5051543;28;20452;-72
2021/07/12 10:33:04;;;;;;;15.30;14.70;;;27.70;12.40;;;;;;5053504;28;20439;-71
2021/07/12 10:35:40;;;;;;;15.60;15.00;;;28.10;12.00;;;;;;5050967;28;20475;-73
2021/07/12 10:38:07;;;;;;;15.60;15.00;;;28.40;10.30;;;;;;5052451;28;20459;-73
2021/07/12 10:40:57;;;;;;;14.80;14.30;;;28.50;10.40;;;;;;5052709;28;20433;-72
2021/07/12 10:43:31;;;;;;;16.63;15.97;;;28.80;11.00;;;;;;5053216;28;20413;-73
2021/07/12 10:45:57;;;;;;;16.00;15.20;;;28.80;9.20;;;;;;5027720;28;20447;-72
2021/07/12 10:48:35;;;;;;;15.60;15.00;;;28.70;10.40;;;;;;5032780;28;20536;-71
2021/07/12 10:51:18;;;;;;;15.57;14.93;;;28.50;11.20;;;;;;5051590;28;20553;-72
2021/07/12 10:54:03;;;;;;;16.10;15.50;;;28.30;9.40;;;;;;5052860;28;20402;-72
2021/07/12 10:56:56;;;;;;;16.00;15.33;;;27.90;10.40;;;;;;5052865;28;20401;-72
2021/07/12 10:59:28;;;;;;;16.13;15.43;;;28.10;10.10;;;;;;5029226;28;20461;-72
2021/07/12 11:01:54;;;;;;;16.47;15.87;;;28.30;9.30;;;;;;5052141;28;20427;-72
2021/07/12 11:04:35;;;;;;;16.20;15.60;;;28.40;9.40;;;;;;5034923;28;20413;-72
2021/07/12 11:07:04;;;;;;;16.83;16.03;;;28.40;8.60;;;;;;5052633;28;20401;-72
2021/07/12 11:09:51;;;;;;;15.60;15.00;;;28.50;10.70;;;;;;5052459;28;20432;-71
2021/07/12 11:12:26;;;;;;;16.30;15.60;;;28.70;11.80;;;;;;5032519;28;20417;-71
2021/07/12 11:15:12;;;;;;;16.60;16.00;;;28.90;10.60;;;;;;5014826;28;20425;-72
2021/07/12 11:18:01;;;;;;;15.23;14.63;;;29.10;8.40;;;;;;5032433;28;20464;-72
2021/07/12 11:20:47;;;;;;;15.70;15.10;;;29.30;8.60;;;;;;5038017;28;20542;-72
2021/07/12 11:23:38;;;;;;;16.60;15.83;;;29.30;10.70;;;;;;5034275;28;20441;-72
2021/07/12 11:26:38;;;;;;;17.20;16.50;;;29.00;10.00;;;;;;5051968;28;20413;-71
2021/07/12 11:29:15;;;;;;;17.20;16.60;;;28.70;9.60;;;;;;5051787;28;20453;-72
2021/07/12 11:31:54;;;;;;;16.83;16.20;;;28.50;8.80;;;;;;5035363;28;20426;-72
2021/07/12 11:34:31;;;;;;;15.77;15.13;;;28.40;11.30;;;;;;5031712;28;20402;-72
2021/07/12 11:37:03;;;;;;;16.97;16.27;;;28.50;11.80;;;;;;5032011;28;20401;-72
2021/07/12 11:39:31;;;;;;;16.87;16.17;;;28.60;9.20;;;;;;5031590;28;21030;-71
2021/07/12 11:41:58;;;;;;;16.90;16.20;;;28.60;10.10;;;;;;5049834;28;20417;-71
2021/07/12 11:44:24;;;;;;;16.93;16.33;;;28.80;9.50;;;;;;5051680;28;20408;-71
2021/07/12 11:46:50;;;;;;;16.80;16.20;;;28.80;8.70;;;;;;5051882;28;20408;-72
2021/07/12 11:49:19;;;;;;;17.10;16.40;;;28.90;9.20;;;;;;5032137;28;20226;-72
2021/07/12 11:51:50;;;;;;;16.90;16.30;;;29.00;8.50;;;;;;5029584;23;20498;-71
2021/07/12 11:54:26;;;;;;;17.13;16.43;;;29.10;9.40;;;;;;5014440;28;20418;-73
2021/07/12 11:57:02;;;;;;;18.50;17.80;;;29.10;10.00;;;;;;5012847;28;20502;-72
2021/07/12 11:59:33;;;;;;;18.17;17.27;;;29.00;7.70;;;;;;5012782;28;20554;-72
2021/07/12 12:02:11;;;;;;;17.93;17.23;;;29.10;8.30;;;;;;5013294;28;20454;-73
2021/07/12 12:04:46;;;;;;;17.27;16.57;;;29.20;7.40;;;;;;5014155;28;20418;-72
2021/07/12 12:07:23;;;;;;;17.73;17.03;;;29.20;8.30;;;;;;5024503;28;20399;-73
2021/07/12 12:09:56;;;;;;;17.30;16.70;;;29.20;8.60;;;;;;5022065;28;20776;-73
2021/07/12 12:12:25;;;;;;;18.53;17.70;;;29.40;9.20;;;;;;5018840;28;20433;-71
2021/07/12 12:14:56;;;;;;;17.03;16.23;;;29.50;8.40;;;;;;5030674;28;20469;-70
2021/07/12 12:17:23;;;;;;;17.00;16.40;;;29.40;8.20;;;;;;5048762;28;20434;-70
2021/07/12 12:20:18;;;;;;;16.27;15.60;;;28.90;8.50;;;;;;5031652;28;20439;-70
2021/07/12 12:23:03;;;;;;;17.03;16.33;;;28.80;9.40;;;;;;5024889;28;20830;-70
2021/07/12 12:25:35;;;;;;;18.07;17.27;;;29.00;10.30;;;;;;5040371;28;20433;-71
2021/07/12 12:28:02;;;;;;;17.83;17.07;;;29.20;9.50;;;;;;5042596;28;20483;-70
2021/07/12 12:30:28;;;;;;;17.43;16.73;;;29.40;9.70;;;;;;5046080;28;20852;-71
2021/07/12 12:32:59;;;;;;;17.63;16.93;;;29.50;8.80;;;;;;5046007;28;20485;-71
2021/07/12 12:35:27;;;;;;;18.10;17.40;;;29.80;8.90;;;;;;5049484;28;20433;-71
2021/07/12 12:37:54;;;;;;;18.13;17.43;;;30.00;8.10;;;;;;5048019;28;20517;-71
2021/07/12 12:40:24;;;;;;;17.60;16.90;;;30.20;16.00;;;;;;5048569;28;20448;-71
2021/07/12 12:42:51;;;;;;;17.33;16.63;;;;;;;;;;5048797;28;20784;-71
2021/07/12 12:45:31;;;;;;;18.57;17.67;;;30.60;10.50;;;;;;5048225;28;20456;-71
2021/07/12 12:47:58;;;;;;;18.03;17.33;;;30.70;10.90;;;;;;5049632;28;20427;-71
2021/07/12 12:50:25;;;;;;;17.90;17.10;;;30.60;13.80;;;;;;5049065;28;20461;-71
2021/07/12 12:53:03;;;;;;;16.90;16.30;;;30.50;8.20;;;;;;5051623;28;20695;-71